Time;durP1;ratioP1;P1;durP2;ratioP2;P2;SDS_P1;SDS_P2;PMS_P1;PMS_P2;Temp;Humidity;BMP_temperature;BMP_pressure;BME280_temperature;BME280_humidity;BME280_pressure;Samples;Min_cycle;Max_cycle;Signal;HPM_P1;HPM_P2
2022/06/10 00:00:26;;;;;;;5.20;2.40;;;;;;;21.30;46.31;101498.19;5063432;27;98950;-79
2022/06/10 00:02:53;;;;;;;4.00;2.20;;;;;;;21.36;46.10;101505.81;5075189;27;96849;-77
2022/06/10 00:05:22;;;;;;;5.30;2.70;;;;;;;21.57;45.88;101512.41;5062533;27;97108;-78
2022/06/10 00:07:49;;;;;;;2.83;2.20;;;;;;;21.62;45.56;101498.66;5069376;27;99041;-76
2022/06/10 00:10:19;;;;;;;7.93;1.95;;;;;;;21.66;45.48;101516.31;5068378;27;99230;-77
2022/06/10 00:12:45;;;;;;;4.20;2.30;;;;;;;21.79;45.08;101512.63;5069421;27;97519;-77
2022/06/10 00:15:12;;;;;;;2.70;2.17;;;;;;;21.61;45.37;101513.91;5070538;27;96925;-77
2022/06/10 00:17:40;;;;;;;5.68;2.00;;;;;;;21.68;45.48;101504.47;5068168;27;99074;-78
2022/06/10 00:20:09;;;;;;;4.07;1.88;;;;;;;21.48;45.61;101513.03;5072267;27;97466;-77
2022/06/10 00:22:36;;;;;;;4.43;1.92;;;;;;;21.29;46.25;101518.81;5068228;27;96850;-77
2022/06/10 00:25:04;;;;;;;4.72;2.10;;;;;;;21.67;45.66;101518.00;5070031;27;97013;-76
2022/06/10 00:27:30;;;;;;;4.13;2.03;;;;;;;21.36;46.19;101519.25;5069803;27;98999;-78
2022/06/10 00:29:56;;;;;;;5.13;2.10;;;;;;;21.69;45.28;101519.63;5068401;27;98084;-76
2022/06/10 00:32:23;;;;;;;4.03;2.13;;;;;;;21.63;45.55;101528.13;5071071;27;96851;-76
2022/06/10 00:34:50;;;;;;;5.35;1.70;;;;;;;21.70;45.24;101524.03;5072962;27;98703;-76
2022/06/10 00:37:17;;;;;;;3.17;1.70;;;;;;;21.44;45.47;101530.38;5071026;27;97686;-77
2022/06/10 00:39:44;;;;;;;3.60;1.63;;;;;;;21.52;45.63;101537.91;5071131;27;98860;-77
2022/06/10 00:42:13;;;;;;;1.85;1.65;;;;;;;20.98;46.72;101537.94;5071671;27;98810;-76
2022/06/10 00:44:42;;;;;;;4.75;1.83;;;;;;;21.37;46.00;101542.50;5065386;27;97531;-76
2022/06/10 00:47:16;;;;;;;3.10;1.45;;;;;;;20.85;47.26;101539.72;5071268;27;98940;-77
2022/06/10 00:49:46;;;;;;;2.38;1.70;;;;;;;21.09;46.68;101548.84;5065320;27;98544;-77
2022/06/10 00:52:22;;;;;;;2.60;1.50;;;;;;;21.10;47.05;101553.25;5070617;27;98669;-77
2022/06/10 00:54:51;;;;;;;5.03;1.80;;;;;;;21.02;46.82;101551.06;5068725;27;97861;-77
2022/06/10 00:57:20;;;;;;;2.45;1.63;;;;;;;21.28;46.72;101556.56;5067680;27;99296;-76
2022/06/10 00:59:51;;;;;;;5.18;1.42;;;;;;;20.99;46.88;101553.09;5064876;27;99070;-76
2022/06/10 01:02:20;;;;;;;4.10;1.90;;;;;;;21.11;47.12;101559.50;5063530;27;97313;-76
2022/06/10 01:04:48;;;;;;;4.75;1.75;;;;;;;20.75;47.70;101555.56;5073309;27;97024;-77
2022/06/10 01:07:19;;;;;;;2.65;1.63;;;;;;;20.79;47.69;101562.47;5061665;27;99823;-77
2022/06/10 01:09:48;;;;;;;5.25;1.67;;;;;;;20.27;49.02;101565.78;5067239;27;100269;-78
2022/06/10 01:12:30;;;;;;;3.25;1.70;;;;;;;20.64;48.15;101566.16;5073310;27;98393;-77
2022/06/10 01:15:07;;;;;;;3.78;1.40;;;;;;;20.66;48.12;101573.16;5067475;27;96863;-77
2022/06/10 01:17:43;;;;;;;2.90;1.83;;;;;;;20.91;47.71;101575.09;5065898;27;98990;-77
2022/06/10 01:20:39;;;;;;;2.90;1.75;;;;;;;20.83;48.06;101577.41;5069159;27;98108;-76
2022/06/10 01:23:47;;;;;;;1.75;1.50;;;;;;;21.02;47.77;101582.44;5055679;27;98454;-77
2022/06/10 01:30:08;;;;;;;1.95;1.65;;;;;;;20.65;48.52;101586.66;5067741;27;98518;-76
2022/06/10 01:32:44;;;;;;;5.07;2.03;;;;;;;20.76;48.34;101597.56;5072743;27;99081;-76
2022/06/10 01:35:20;;;;;;;4.97;2.53;;;;;;;20.69;48.37;101586.38;5064574;27;99018;-79
2022/06/10 01:37:58;;;;;;;6.22;1.98;;;;;;;20.67;48.79;101587.44;5064133;27;97844;-77
2022/06/10 01:40:34;;;;;;;3.70;1.90;;;;;;;20.57;49.26;101583.59;5068856;27;99674;-77
2022/06/10 01:43:06;;;;;;;3.83;1.80;;;;;;;20.55;48.96;101590.88;5065772;27;99376;-76
2022/06/10 01:45:38;;;;;;;3.85;2.00;;;;;;;20.53;49.17;101595.50;5069878;27;96756;-76
2022/06/10 01:48:11;;;;;;;3.28;1.90;;;;;;;20.90;48.51;101602.91;5073012;27;97235;-78
2022/06/10 01:50:45;;;;;;;2.15;1.90;;;;;;;20.19;50.10;101600.28;5071965;27;99300;-77
2022/06/10 01:53:15;;;;;;;2.70;2.05;;;;;;;20.41;49.65;101593.63;5068495;27;98032;-76
2022/06/10 01:55:49;;;;;;;1.73;1.60;;;;;;;20.43;49.84;101599.72;5072884;27;97429;-79
2022/06/10 01:58:22;;;;;;;2.80;1.80;;;;;;;19.96;51.02;101608.00;5074045;27;96810;-77
2022/06/10 02:00:56;;;;;;;3.17;2.17;;;;;;;19.95;50.88;101604.50;5074325;27;99239;-77
2022/06/10 02:03:33;;;;;;;2.50;2.00;;;;;;;20.48;49.40;101605.69;5069458;27;97653;-77
2022/06/10 02:06:04;;;;;;;3.17;2.10;;;;;;;20.42;49.68;101614.09;5070078;27;96839;-78
2022/06/10 02:08:35;;;;;;;2.47;1.90;;;;;;;20.36;49.96;101611.81;5072954;27;96893;-78
2022/06/10 02:11:06;;;;;;;2.67;1.98;;;;;;;20.49;49.46;101608.25;5071782;27;98882;-77
2022/06/10 02:13:38;;;;;;;6.50;2.00;;;;;;;20.01;50.29;101620.22;5066919;27;99454;-77
2022/06/10 02:16:10;;;;;;;4.28;2.75;;;;;;;19.82;51.36;101616.91;5068115;27;97613;-77
2022/06/10 02:18:43;;;;;;;3.05;2.20;;;;;;;19.94;50.93;101626.91;5072606;27;96831;-77
2022/06/10 02:21:15;;;;;;;4.15;2.00;;;;;;;20.23;50.56;101627.78;5069585;27;102006;-78
2022/06/10 02:23:46;;;;;;;2.35;1.92;;;;;;;19.91;50.98;101627.06;5066945;27;99483;-77
2022/06/10 02:26:14;;;;;;;6.85;2.20;;;;;;;20.18;50.30;101629.88;5071047;27;97222;-77
2022/06/10 02:28:45;;;;;;;5.03;2.08;;;;;;;20.10;50.60;101632.16;5069105;27;97151;-76
2022/06/10 02:31:17;;;;;;;5.03;2.40;;;;;;;19.70;51.60;101639.06;5071300;27;99582;-78
2022/06/10 02:33:45;;;;;;;2.70;2.22;;;;;;;20.10;50.86;101642.91;5073537;27;99210;-76
2022/06/10 02:36:17;;;;;;;5.32;2.03;;;;;;;20.28;50.32;101641.78;5066599;27;98668;-77
2022/06/10 02:38:53;;;;;;;3.78;2.70;;;;;;;20.12;50.52;101641.88;5065039;27;97434;-76
2022/06/10 02:41:29;;;;;;;3.60;2.30;;;;;;;20.02;50.97;101646.03;5065081;27;102072;-78
2022/06/10 02:44:07;;;;;;;4.43;2.15;;;;;;;20.17;50.71;101645.13;5069388;27;98800;-76
2022/06/10 02:46:40;;;;;;;3.50;2.88;;;;;;;19.87;51.35;101655.03;5066960;27;96819;-78
2022/06/10 02:49:11;;;;;;;5.03;2.22;;;;;;;20.17;50.35;101653.19;5069474;27;97062;-77
2022/06/10 02:51:38;;;;;;;5.63;2.63;;;;;;;19.99;51.08;101659.66;5073227;27;98976;-78
2022/06/10 02:54:08;;;;;;;3.58;2.22;;;;;;;19.87;51.02;101665.78;5067550;27;98981;-77
2022/06/10 02:56:34;;;;;;;5.25;2.30;;;;;;;19.83;51.34;101669.56;5069917;27;97138;-77
2022/06/10 03:02:04;;;;;;;5.07;2.20;;;;;;;19.63;51.71;101681.47;5063393;27;97174;-76
2022/06/10 03:04:44;;;;;;;6.95;2.65;;;;;;;19.34;52.41;101675.09;5064429;27;99237;-76
2022/06/10 03:07:27;;;;;;;5.70;2.35;;;;;;;19.60;51.47;101683.47;5067780;27;97836;-77
2022/06/10 03:10:07;;;;;;;3.38;2.22;;;;;;;19.79;51.17;101686.81;5065294;27;96837;-77
2022/06/10 03:12:38;;;;;;;4.10;2.33;;;;;;;19.36;52.34;101683.91;5066012;27;99115;-77
2022/06/10 03:15:19;;;;;;;8.23;2.50;;;;;;;19.18;52.44;101692.13;5069281;27;98791;-77
2022/06/10 03:17:56;;;;;;;7.97;3.03;;;;;;;18.93;53.72;101688.13;5067336;27;96831;-78
2022/06/10 03:20:31;;;;;;;3.97;2.50;;;;;;;19.24;52.64;101692.63;5064198;27;97156;-77
2022/06/10 03:23:16;;;;;;;7.13;2.85;;;;;;;19.25;52.53;101699.72;5064504;27;98940;-79
2022/06/10 03:25:46;;;;;;;3.90;2.58;;;;;;;19.55;51.83;101704.34;5069798;27;101199;-77
2022/06/10 03:28:17;;;;;;;3.75;2.40;;;;;;;19.48;52.27;101712.75;5066031;27;97659;-76
2022/06/10 03:30:51;;;;;;;4.90;3.60;;;;;;;19.67;51.44;101712.53;5067124;27;97134;-77
2022/06/10 03:33:37;;;;;;;4.70;2.70;;;;;;;19.70;51.18;101719.50;5069827;27;99400;-78
2022/06/10 03:36:12;;;;;;;7.30;2.53;;;;;;;19.65;51.45;101708.19;5064449;27;98865;-80
2022/06/10 03:38:41;;;;;;;7.18;2.80;;;;;;;19.75;51.42;101723.69;5071996;27;97731;-80
2022/06/10 03:41:08;;;;;;;6.43;2.88;;;;;;;19.81;51.18;101719.78;5071279;27;98858;-78
2022/06/10 03:43:38;;;;;;;4.47;2.33;;;;;;;19.61;51.68;101728.97;5071933;27;97682;-79
2022/06/10 03:46:09;;;;;;;5.40;2.70;;;;;;;19.61;51.33;101733.47;5069072;27;97609;-78
2022/06/10 03:48:38;;;;;;;5.85;2.90;;;;;;;19.52;51.96;101734.84;5070568;27;96860;-76
2022/06/10 03:51:08;;;;;;;4.30;2.70;;;;;;;19.83;50.93;101736.63;5070933;27;97104;-77
2022/06/10 03:53:35;;;;;;;4.28;2.55;;;;;;;19.98;50.32;101741.09;5070073;27;98961;-77
2022/06/10 03:56:01;;;;;;;6.45;2.55;;;;;;;19.79;50.66;101737.75;5069165;27;98924;-77
2022/06/10 03:58:28;;;;;;;4.28;2.88;;;;;;;19.68;50.86;101742.88;5070212;27;96985;-79
2022/06/10 04:00:55;;;;;;;7.40;2.67;;;;;;;19.38;51.38;101751.69;5066481;27;98630;-80
2022/06/10 04:03:22;;;;;;;5.85;2.78;;;;;;;19.83;50.42;101753.56;5067729;27;101373;-78
2022/06/10 04:05:48;;;;;;;9.73;2.60;;;;;;;20.29;49.69;101750.84;5073874;27;99848;-78
2022/06/10 04:08:16;;;;;;;7.03;2.60;;;;;;;20.10;49.97;101759.16;5075460;27;97060;-77
2022/06/10 04:10:43;;;;;;;4.57;2.33;;;;;;;19.92;50.46;101762.91;5075155;27;98831;-77
2022/06/10 04:13:10;;;;;;;6.40;2.90;;;;;;;19.95;50.28;101768.13;5070124;27;99044;-77
2022/06/10 04:15:37;;;;;;;6.15;3.17;;;;;;;19.71;50.85;101767.69;5071036;27;98140;-76
2022/06/10 04:18:04;;;;;;;10.68;3.97;;;;;;;19.87;50.69;101770.38;5066249;27;96865;-76
2022/06/10 04:20:34;;;;;;;7.93;3.38;;;;;;;20.17;50.29;101765.88;5064908;27;96854;-77
2022/06/10 04:23:00;;;;;;;8.30;3.38;;;;;;;20.31;49.77;101770.41;5070089;27;99660;-75
2022/06/10 04:25:29;;;;;;;11.02;3.80;;;;;;;20.20;49.93;101768.38;5067260;27;98628;-77
2022/06/10 04:27:56;;;;;;;7.53;3.75;;;;;;;20.23;50.11;101773.56;5071117;27;96785;-77
2022/06/10 04:30:26;;;;;;;10.80;4.40;;;;;;;20.23;49.79;101765.50;5072884;27;97240;-78
2022/06/10 04:32:52;;;;;;;8.02;3.85;;;;;;;20.58;49.10;101766.09;5070545;27;101417;-78
2022/06/10 04:35:20;;;;;;;9.50;3.70;;;;;;;20.89;48.56;101764.19;5060947;27;97748;-77
2022/06/10 04:37:48;;;;;;;7.80;3.67;;;;;;;20.75;48.94;101770.44;5062893;27;96838;-79
2022/06/10 04:40:17;;;;;;;5.97;3.15;;;;;;;21.15;47.90;101770.63;5070244;27;96955;-78
2022/06/10 04:42:46;;;;;;;8.60;4.18;;;;;;;21.06;47.98;101781.00;5065221;27;101327;-78
2022/06/10 04:45:13;;;;;;;9.23;3.60;;;;;;;20.87;48.08;101780.41;5067482;27;102044;-77
2022/06/10 04:47:40;;;;;;;20.33;11.07;;;;;;;20.96;48.54;101778.97;5074425;27;97588;-76
2022/06/10 04:50:08;;;;;;;12.18;5.53;;;;;;;20.88;48.55;101782.13;5074413;27;97122;-77
2022/06/10 04:52:35;;;;;;;11.25;4.05;;;;;;;20.57;49.31;101783.16;5067468;27;99226;-77
2022/06/10 04:55:02;;;;;;;11.13;4.45;;;;;;;20.53;49.43;101788.81;5074619;27;99027;-78
2022/06/10 04:57:28;;;;;;;21.27;5.03;;;;;;;21.93;46.50;101787.94;5073241;27;97166;-78
2022/06/10 04:59:56;;;;;;;16.13;7.82;;;;;;;24.31;41.27;101791.56;5069202;27;96755;-77
2022/06/10 05:02:22;;;;;;;9.82;4.20;;;;;;;26.18;36.87;101796.22;5067198;27;98313;-80
2022/06/10 05:04:49;;;;;;;10.23;3.03;;;;;;;26.50;35.39;101798.91;5100816;22;97967;-79
2022/06/10 05:07:15;;;;;;;10.80;3.15;;;;;;;26.27;35.45;101800.00;5050961;27;100177;-82
2022/06/10 05:09:42;;;;;;;11.90;3.83;;;;;;;25.88;36.02;101801.47;5048041;27;97039;-79
2022/06/10 05:12:09;;;;;;;9.00;3.03;;;;;;;25.57;37.15;101798.63;5048981;27;99011;-79
2022/06/10 05:14:35;;;;;;;7.57;2.50;;;;;;;26.64;34.80;101806.72;5051454;27;98993;-81
2022/06/10 05:17:04;;;;;;;8.80;2.80;;;;;;;24.60;38.33;101812.66;5049515;27;97067;-80
2022/06/10 05:19:30;;;;;;;7.88;2.78;;;;;;;23.74;40.42;101806.59;5053362;27;96857;-80
2022/06/10 05:21:57;;;;;;;5.93;2.40;;;;;;;23.15;41.63;101812.75;5048260;27;99213;-81
2022/06/10 05:24:23;;;;;;;7.63;2.70;;;;;;;23.31;41.05;101816.06;5054107;27;99224;-83
2022/06/10 05:26:50;;;;;;;6.32;2.40;;;;;;;22.80;42.50;101817.94;5046612;27;96845;-79
2022/06/10 05:29:16;;;;;;;9.43;2.83;;;;;;;23.21;41.89;101815.00;5052838;27;98863;-80
2022/06/10 05:31:42;;;;;;;5.25;2.38;;;;;;;22.44;42.62;101822.19;5054725;27;97755;-81
2022/06/10 05:36:54;;;;;;;5.25;2.20;;;;;;;22.07;43.97;101821.09;5051390;27;96917;-82
2022/06/10 05:39:21;;;;;;;12.02;2.58;;;;;;;22.68;42.75;101827.69;5049735;27;96994;-80
2022/06/10 05:42:06;;;;;;;6.93;2.20;;;;;;;22.20;43.22;101829.19;5046208;27;101555;-80
2022/06/10 05:44:32;;;;;;;8.10;1.67;;;;;;;22.58;42.12;101831.97;5046070;27;101111;-79
2022/06/10 05:47:00;;;;;;;5.43;1.80;;;;;;;22.59;42.56;101831.00;5040663;27;96705;-82
2022/06/10 05:49:29;;;;;;;5.55;1.80;;;;;;;22.78;42.04;101836.03;5053113;27;96927;-79
2022/06/10 05:51:56;;;;;;;4.25;1.65;;;;;;;21.74;43.95;101840.28;5056864;27;98982;-79
2022/06/10 05:54:23;;;;;;;7.45;1.50;;;;;;;21.81;44.53;101838.03;5054800;27;101751;-80
2022/06/10 05:56:50;;;;;;;11.57;2.30;;;;;;;22.26;43.35;101844.94;5049812;27;97493;-81
2022/06/10 05:59:18;;;;;;;7.35;2.17;;;;;;;22.44;42.57;101834.78;5042668;27;96822;-80
2022/06/10 06:01:45;;;;;;;12.23;1.63;;;;;;;22.78;41.85;101831.50;5045730;27;99083;-79
2022/06/10 06:04:12;;;;;;;5.95;1.40;;;;;;;22.15;42.86;101837.59;5047915;27;98982;-80
2022/06/10 06:06:40;;;;;;;5.15;1.33;;;;;;;22.25;42.21;101827.09;5050135;27;96714;-82
2022/06/10 06:09:07;;;;;;;5.70;1.48;;;;;;;22.92;40.98;101833.22;5054015;27;96952;-79
2022/06/10 06:11:33;;;;;;;3.40;1.00;;;;;;;22.32;41.96;101833.75;5044711;27;97802;-79
2022/06/10 06:14:00;;;;;;;5.78;1.67;;;;;;;22.85;41.33;101843.56;5042288;27;98804;-78
2022/06/10 06:16:26;;;;;;;4.75;1.63;;;;;;;22.48;41.86;101841.66;5048192;27;96651;-79
2022/06/10 06:18:52;;;;;;;5.50;1.25;;;;;;;23.04;40.89;101837.75;5041994;27;96836;-79
2022/06/10 06:21:19;;;;;;;3.50;1.38;;;;;;;23.22;40.56;101832.91;5039632;27;98963;-80
2022/06/10 06:23:47;;;;;;;3.83;1.15;;;;;;;23.03;40.55;101836.91;5046481;27;100784;-79
2022/06/10 06:26:15;;;;;;;7.35;1.63;;;;;;;23.73;39.29;101836.41;5049356;27;98376;-80
2022/06/10 06:28:42;;;;;;;3.45;1.45;;;;;;;23.72;39.29;101840.94;5045437;27;96942;-80
2022/06/10 06:31:08;;;;;;;4.15;1.38;;;;;;;24.00;38.76;101839.75;5035446;27;99035;-80
2022/06/10 06:33:34;;;;;;;4.75;1.58;;;;;;;23.73;38.32;101839.09;5045098;27;101399;-81
2022/06/10 06:36:01;;;;;;;4.55;1.10;;;;;;;23.36;38.45;101841.75;5054529;27;96956;-82
2022/06/10 06:38:28;;;;;;;7.95;1.50;;;;;;;23.96;37.49;101837.41;5052999;27;97430;-79
2022/06/10 06:40:55;;;;;;;7.68;1.42;;;;;;;24.23;36.76;101846.16;5047073;27;99130;-83
2022/06/10 06:43:22;;;;;;;6.28;1.38;;;;;;;23.52;38.18;101849.63;5049546;27;98882;-82
2022/06/10 06:45:48;;;;;;;9.02;1.38;;;;;;;23.57;38.27;101857.38;5054379;27;97145;-82
2022/06/10 06:48:15;;;;;;;4.30;1.10;;;;;;;24.03;37.37;101844.91;5058864;27;96786;-82
2022/06/10 06:50:45;;;;;;;4.32;1.10;;;;;;;24.46;36.74;101844.41;5060515;27;99123;-80
2022/06/10 06:53:12;;;;;;;6.10;1.60;;;;;;;24.62;36.27;101858.47;5057763;27;98746;-78
2022/06/10 06:55:40;;;;;;;7.20;1.52;;;;;;;23.96;37.29;101848.22;5053235;27;96894;-81
2022/06/10 06:58:12;;;;;;;5.15;1.33;;;;;;;23.75;37.97;101854.22;5053929;27;97097;-81
2022/06/10 07:00:39;;;;;;;4.57;1.50;;;;;;;23.95;37.68;101852.75;5043396;27;101830;-82
2022/06/10 07:03:05;;;;;;;8.38;1.33;;;;;;;23.62;37.40;101860.63;5044578;27;98958;-75
2022/06/10 07:05:32;;;;;;;7.32;1.27;;;;;;;24.28;36.66;101856.63;5049621;27;96662;-76
2022/06/10 07:07:59;;;;;;;6.95;1.40;;;;;;;24.59;35.81;101858.72;5040529;27;96865;-77
2022/06/10 07:10:26;;;;;;;6.35;1.63;;;;;;;25.20;34.69;101856.66;5053902;27;99196;-76
2022/06/10 07:12:52;;;;;;;5.60;1.75;;;;;;;23.68;37.22;101870.97;5053733;27;99066;-76
2022/06/10 07:15:21;;;;;;;10.38;1.70;;;;;;;23.75;36.64;101864.16;5045567;27;97651;-76
2022/06/10 07:17:48;;;;;;;7.40;1.50;;;;;;;23.68;36.66;101860.16;5041418;27;96877;-75
2022/06/10 07:20:20;;;;;;;18.17;1.95;;;;;;;23.43;36.07;101861.88;5046504;27;98938;-77
2022/06/10 07:22:47;;;;;;;9.70;1.42;;;;;;;;;;5042798;27;101987;-77
2022/06/10 07:25:14;;;;;;;4.55;1.30;;;;;;;23.95;35.46;101863.53;5052146;27;96733;-76
2022/06/10 07:27:41;;;;;;;8.88;1.20;;;;;;;23.58;35.53;101859.97;5051932;27;97239;-76
2022/06/10 07:30:09;;;;;;;5.43;1.23;;;;;;;23.91;35.08;101863.84;5044983;27;99155;-77
2022/06/10 07:32:36;;;;;;;16.38;1.88;;;;;;;24.33;34.93;101862.53;5045114;27;98902;-76
2022/06/10 07:35:03;;;;;;;3.75;1.20;;;;;;;24.05;35.04;101845.66;5050332;27;96994;-76
2022/06/10 07:37:30;;;;;;;15.82;2.38;;;;;;;23.73;35.50;101868.78;5050169;27;97151;-77
2022/06/10 07:39:57;;;;;;;6.20;1.40;;;;;;;24.52;34.13;101868.25;5054295;27;98973;-77
2022/06/10 07:42:22;;;;;;;9.02;1.40;;;;;;;23.95;34.43;101874.34;5045246;27;97688;-77
2022/06/10 07:44:49;;;;;;;5.70;1.45;;;;;;;23.78;34.89;101866.59;5041942;27;96743;-77
2022/06/10 07:47:17;;;;;;;7.78;1.60;;;;;;;24.02;34.60;101870.22;5053899;27;96875;-77
2022/06/10 07:49:44;;;;;;;7.65;1.85;;;;;;;24.17;34.52;101876.28;5055283;27;98288;-77
2022/06/10 07:52:12;;;;;;;12.90;2.20;;;;;;;24.49;33.97;101868.47;5055253;27;98146;-76
2022/06/10 07:54:39;;;;;;;5.32;1.10;;;;;;;24.16;35.02;101879.97;5048331;27;96764;-75
2022/06/10 07:57:07;;;;;;;5.28;1.30;;;;;;;23.95;35.33;101873.47;5043885;27;96972;-77
2022/06/10 07:59:34;;;;;;;6.57;1.55;;;;;;;23.95;35.47;101871.63;5049764;27;98895;-76
2022/06/10 08:02:01;;;;;;;7.55;1.67;;;;;;;23.95;35.45;101874.34;5046132;27;98819;-76
2022/06/10 08:04:28;;;;;;;5.78;1.60;;;;;;;23.79;35.68;101879.13;5044977;27;102663;-75
2022/06/10 08:06:55;;;;;;;7.47;1.27;;;;;;;24.09;35.32;101865.22;5052351;27;97380;-76
2022/06/10 08:09:23;;;;;;;6.30;1.20;;;;;;;24.10;35.50;101873.19;5045000;27;98834;-77
2022/06/10 08:11:50;;;;;;;6.30;1.42;;;;;;;24.25;35.10;101871.22;5052548;27;97726;-76
2022/06/10 08:14:16;;;;;;;8.80;1.63;;;;;;;24.66;34.65;101869.91;5044223;27;97184;-77
2022/06/10 08:16:43;;;;;;;5.97;1.52;;;;;;;24.85;33.92;101865.66;5045095;27;96924;-76
2022/06/10 08:19:10;;;;;;;11.50;1.60;;;;;;;25.24;33.54;101874.34;5045853;27;97777;-77
2022/06/10 08:24:19;;;;;;;8.45;1.55;;;;;;;25.52;33.25;101862.19;5003363;27;97767;-77
2022/06/10 08:26:45;;;;;;;9.63;1.85;;;;;;;24.88;34.44;101861.84;5054304;27;97089;-77
2022/06/10 08:29:12;;;;;;;13.18;2.42;;;;;;;24.58;34.74;101863.25;5053834;27;99099;-76
2022/06/10 08:31:39;;;;;;;7.80;1.73;;;;;;;24.63;34.12;101877.25;5046555;27;98908;-76
2022/06/10 08:34:05;;;;;;;9.63;1.63;;;;;;;24.15;34.72;101865.63;5051944;27;96897;-77
2022/06/10 08:36:33;;;;;;;7.85;1.60;;;;;;;24.51;33.95;101869.22;5048567;27;96861;-77
2022/06/10 08:39:00;;;;;;;9.43;1.75;;;;;;;25.16;32.73;101871.38;5048035;27;99206;-76
2022/06/10 08:41:33;;;;;;;13.40;1.90;;;;;;;24.45;32.96;101872.41;5052828;27;98783;-76
2022/06/10 08:44:05;;;;;;;7.95;1.38;;;;;;;24.56;32.89;101861.63;5044909;27;96871;-76
2022/06/10 08:47:06;;;;;;;11.30;1.73;;;;;;;24.23;33.54;101867.75;5049056;27;96823;-76
2022/06/10 08:49:54;;;;;;;9.68;1.65;;;;;;;24.61;32.92;101879.22;5019618;27;97975;-75
2022/06/10 08:52:29;;;;;;;7.78;1.48;;;;;;;24.66;32.86;101878.00;5049185;27;99399;-76
2022/06/10 08:55:03;;;;;;;10.32;1.80;;;;;;;25.34;32.09;101878.03;5048679;27;97103;-77
2022/06/10 08:57:36;;;;;;;14.40;1.60;;;;;;;25.27;31.41;101866.84;5039759;27;96808;-76
2022/06/10 09:00:07;;;;;;;15.48;1.70;;;;;;;25.09;31.31;101878.25;5053600;27;98918;-77
2022/06/10 09:02:39;;;;;;;10.10;1.48;;;;;;;24.43;32.87;101875.22;5051381;27;98755;-77
2022/06/10 09:05:09;;;;;;;7.43;1.40;;;;;;;24.60;32.33;101877.50;5047798;27;96806;-77
2022/06/10 09:07:42;;;;;;;8.30;1.58;;;;;;;24.21;33.04;101858.94;5050902;27;97228;-76
2022/06/10 09:10:19;;;;;;;8.65;1.48;;;;;;;23.94;33.75;101871.75;5051287;27;99349;-76
2022/06/10 09:13:07;;;;;;;8.63;1.60;;;;;;;24.80;32.88;101872.41;5046033;27;99127;-75
2022/06/10 09:15:37;;;;;;;10.93;2.00;;;;;;;25.57;32.06;101877.09;5043499;27;96877;-76
2022/06/10 09:18:07;;;;;;;6.00;1.25;;;;;;;25.33;31.96;101857.41;5043980;27;96756;-74
2022/06/10 09:20:40;;;;;;;13.93;1.92;;;;;;;25.11;31.38;101869.06;5052958;27;98983;-76
2022/06/10 09:23:11;;;;;;;7.80;1.65;;;;;;;25.77;31.19;101857.41;5053857;27;98933;-77
2022/06/10 09:25:42;;;;;;;10.93;1.20;;;;;;;25.58;31.04;101865.28;5044393;27;97155;-77
2022/06/10 09:28:10;;;;;;;8.27;1.20;;;;;;;25.01;32.37;101863.50;5053721;27;96829;-76
2022/06/10 09:30:43;;;;;;;6.68;1.63;;;;;;;25.50;31.42;101865.00;5047014;27;98991;-76
2022/06/10 09:33:15;;;;;;;10.85;2.53;;;;;;;25.68;30.88;101865.38;5053468;27;97775;-77
2022/06/10 09:35:51;;;;;;;41.40;3.55;;;;;;;25.89;30.54;101868.19;5053678;27;96730;-76
2022/06/10 09:38:26;;;;;;;18.58;1.77;;;;;;;25.85;29.91;101858.63;5043272;27;99276;-77
2022/06/10 09:40:59;;;;;;;31.15;2.38;;;;;;;25.53;30.15;101870.19;5049213;27;99677;-76
2022/06/10 09:43:48;;;;;;;7.97;1.27;;;;;;;25.57;30.86;101860.88;5047449;27;99019;-76
2022/06/10 09:46:34;;;;;;;6.22;1.42;;;;;;;25.52;30.90;101859.47;5044788;27;97150;-77
2022/06/10 09:49:34;;;;;;;18.02;1.95;;;;;;;24.78;31.64;101875.22;5053263;27;96867;-77
2022/06/10 09:52:10;;;;;;;5.35;1.55;;;;;;;25.39;30.55;101859.63;5011182;27;100483;-76
2022/06/10 09:54:52;;;;;;;10.05;1.58;;;;;;;26.01;29.85;101859.91;5044010;27;98823;-77
2022/06/10 09:57:54;;;;;;;8.45;1.30;;;;;;;26.35;28.17;101859.84;5043650;27;96735;-77
2022/06/10 10:00:31;;;;;;;3.55;1.27;;;;;;;26.21;28.32;101855.53;5049945;27;96939;-78
2022/06/10 10:03:10;;;;;;;9.95;1.13;;;;;;;25.58;27.62;101861.72;5041439;27;99254;-76
2022/06/10 10:05:57;;;;;;;7.70;1.10;;;;;;;25.69;28.46;101862.56;5046960;27;100461;-77
2022/06/10 10:08:29;;;;;;;3.95;1.25;;;;;;;25.63;28.91;101873.03;5043868;27;96872;-76
2022/06/10 10:11:01;;;;;;;7.38;1.23;;;;;;;24.50;30.56;101864.81;5044029;27;98127;-78
2022/06/10 10:13:42;;;;;;;6.15;1.17;;;;;;;24.95;30.40;101858.56;5046046;27;99200;-76
2022/06/10 10:16:25;;;;;;;6.65;1.42;;;;;;;25.67;29.83;101861.81;5044636;27;99040;-78
2022/06/10 10:19:07;;;;;;;6.90;1.38;;;;;;;25.56;28.88;101847.41;5048028;27;96752;-77
2022/06/10 10:21:42;;;;;;;11.70;1.15;;;;;;;25.64;28.79;101862.09;5038473;27;96706;-76
2022/06/10 10:24:14;;;;;;;7.63;1.13;;;;;;;25.57;28.41;101860.88;5049554;27;99420;-76
2022/06/10 10:26:44;;;;;;;8.15;1.58;;;;;;;25.30;28.77;101861.19;5046892;27;100272;-76
2022/06/10 10:29:14;;;;;;;4.20;1.10;;;;;;;25.32;29.22;101852.97;5048129;27;96983;-76
2022/06/10 10:31:46;;;;;;;5.43;1.25;;;;;;;25.60;29.18;101857.06;5047632;27;97367;-76
2022/06/10 10:34:20;;;;;;;5.60;1.20;;;;;;;25.62;28.00;101850.50;5048264;27;99307;-75
2022/06/10 10:36:50;;;;;;;5.57;1.10;;;;;;;26.14;27.08;101859.75;5049495;27;99498;-75
2022/06/10 10:39:27;;;;;;;5.07;1.20;;;;;;;25.74;28.18;101849.50;5045855;27;97006;-78
2022/06/10 10:41:57;;;;;;;5.82;1.27;;;;;;;25.69;28.14;101840.91;5046976;27;96807;-76
2022/06/10 10:44:38;;;;;;;9.65;1.58;;;;;;;25.62;28.38;101857.78;5040823;27;99087;-76
2022/06/10 10:47:18;;;;;;;5.78;1.40;;;;;;;25.50;28.26;101853.31;5048909;27;98886;-76
2022/06/10 10:49:49;;;;;;;8.57;1.63;;;;;;;25.74;28.46;101848.66;5051030;27;96775;-76
2022/06/10 10:52:20;;;;;;;3.53;1.13;;;;;;;25.69;28.11;101840.91;5049065;27;97062;-75
2022/06/10 10:54:51;;;;;;;5.50;1.15;;;;;;;26.09;27.76;101852.03;5052330;27;99177;-77
2022/06/10 10:57:25;;;;;;;8.73;1.63;;;;;;;26.19;27.94;101849.38;5045160;27;97524;-76
2022/06/10 10:59:56;;;;;;;4.95;1.20;;;;;;;25.59;28.27;101842.66;5051108;27;96908;-76
2022/06/10 11:02:40;;;;;;;4.47;1.20;;;;;;;25.86;28.08;101841.38;5055859;27;97401;-77
2022/06/10 11:05:31;;;;;;;10.95;1.45;;;;;;;26.53;28.17;101847.44;5049140;27;98965;-76
2022/06/10 11:08:19;;;;;;;7.05;1.58;;;;;;;26.77;28.01;101849.91;5049961;27;97557;-75
2022/06/10 11:10:56;;;;;;;6.40;1.33;;;;;;;26.03;28.25;101851.66;5050206;27;97392;-76
2022/06/10 11:13:32;;;;;;;11.65;3.17;;;;;;;26.01;28.31;101846.38;5056446;27;97032;-77
2022/06/10 11:16:17;;;;;;;8.10;1.35;;;;;;;26.25;27.98;101853.50;5052210;27;99441;-75
2022/06/10 11:18:47;;;;;;;6.13;1.65;;;;;;;26.15;28.47;101848.78;5049310;27;100319;-76
2022/06/10 11:21:13;;;;;;;6.63;1.27;;;;;;;25.86;28.64;101839.53;5043011;27;97216;-75
2022/06/10 11:23:50;;;;;;;5.53;1.40;;;;;;;26.17;28.43;101841.41;5051288;27;96886;-76
2022/06/10 11:26:20;;;;;;;7.15;1.50;;;;;;;26.79;27.53;101839.75;5041386;27;98144;-76
2022/06/10 11:28:47;;;;;;;6.35;1.48;;;;;;;26.69;27.09;101837.00;5049221;27;99031;-76
2022/06/10 11:31:20;;;;;;;6.82;1.30;;;;;;;26.68;27.17;101834.41;5050085;27;96887;-75
2022/06/10 11:33:52;;;;;;;5.18;1.20;;;;;;;26.97;26.77;101840.94;5051842;27;96679;-76
2022/06/10 11:36:24;;;;;;;5.55;1.23;;;;;;;26.59;27.18;101836.91;5051153;27;98951;-75
2022/06/10 11:38:54;;;;;;;4.47;1.40;;;;;;;26.94;26.95;101841.19;5049845;27;98864;-76
2022/06/10 11:41:30;;;;;;;4.68;0.95;;;;;;;27.34;26.41;101828.53;5056358;27;96901;-75
2022/06/10 11:44:03;;;;;;;7.20;2.08;;;;;;;27.01;26.37;101830.66;5052988;27;97115;-76
2022/06/10 11:46:38;;;;;;;5.30;1.30;;;;;;;26.01;26.48;101823.84;5042627;27;98874;-75
2022/06/10 11:49:16;;;;;;;5.53;1.40;;;;;;;25.75;27.36;101826.00;5049644;27;99036;-76
2022/06/10 11:51:49;;;;;;;6.53;1.38;;;;;;;26.29;26.84;101823.28;5049442;27;97240;-75
2022/06/10 11:54:26;;;;;;;6.43;1.40;;;;;;;26.99;26.46;101811.78;5046655;27;97967;-76